Time;durP1;ratioP1;P1;durP2;ratioP2;P2;SDS_P1;SDS_P2;PMS_P1;PMS_P2;Temp;Humidity;BMP_temperature;BMP_pressure;BME280_temperature;BME280_humidity;BME280_pressure;Samples;Min_cycle;Max_cycle;Signal;HPM_P1;HPM_P2
2021/06/21 00:01:16;;;;;;;21.05;8.10;;;21.50;85.70;;;;;;5027119;28;20206;-91
2021/06/21 00:09:06;;;;;;;25.80;8.20;;;21.50;86.40;;;;;;5005081;28;20203;-91
2021/06/21 00:11:33;;;;;;;20.88;8.18;;;21.50;86.20;;;;;;5027274;28;20242;-92
2021/06/21 00:14:00;;;;;;;25.83;8.38;;;21.50;86.30;;;;;;5018810;28;20203;-92
2021/06/21 00:16:28;;;;;;;21.73;7.85;;;21.50;86.80;;;;;;5023190;28;20200;-92
2021/06/21 00:18:56;;;;;;;23.63;8.68;;;21.50;87.10;;;;;;5028020;28;20330;-92
2021/06/21 00:21:24;;;;;;;24.30;8.48;;;21.40;87.60;;;;;;5011294;28;20242;-92
2021/06/21 00:23:51;;;;;;;23.58;8.25;;;21.40;88.40;;;;;;5020435;28;20286;-92
2021/06/21 00:26:18;;;;;;;24.85;9.07;;;21.30;88.80;;;;;;5017094;28;20199;-92
2021/06/21 00:28:45;;;;;;;24.60;8.98;;;21.50;88.90;;;;;;5011710;28;20618;-92
2021/06/21 00:31:13;;;;;;;24.00;8.32;;;21.50;88.70;;;;;;5024101;28;20219;-92
2021/06/21 00:33:40;;;;;;;24.25;7.90;;;21.40;88.60;;;;;;5020534;28;20254;-92
2021/06/21 00:38:49;;;;;;;23.67;8.10;;;21.30;90.20;;;;;;5018705;28;20215;-92
2021/06/21 00:41:16;;;;;;;19.02;8.63;;;21.20;90.40;;;;;;5027034;28;20259;-92
2021/06/21 00:43:44;;;;;;;25.50;8.40;;;21.20;90.60;;;;;;5024268;28;20238;-92
2021/06/21 00:48:52;;;;;;;21.20;8.02;;;21.10;90.70;;;;;;5021291;28;20278;-91
2021/06/21 00:56:45;;;;;;;22.05;7.70;;;21.00;90.60;;;;;;5018035;28;20206;-92
2021/06/21 00:59:12;;;;;;;23.17;8.10;;;21.00;90.70;;;;;;5019031;28;20398;-92
2021/06/21 01:01:39;;;;;;;24.88;8.18;;;21.00;91.00;;;;;;5016114;28;20675;-93
2021/06/21 01:04:06;;;;;;;19.98;7.05;;;21.00;90.60;;;;;;5013741;28;20223;-93
2021/06/21 01:06:34;;;;;;;20.50;7.40;;;21.00;90.70;;;;;;5012715;28;20207;-94
2021/06/21 01:11:53;;;;;;;23.17;7.68;;;20.90;90.70;;;;;;5010368;28;20229;-93
2021/06/21 01:14:24;;;;;;;20.50;7.07;;;20.80;90.90;;;;;;4996683;28;20215;-93
2021/06/21 01:16:57;;;;;;;21.88;6.88;;;20.70;91.40;;;;;;5006242;28;20231;-93
2021/06/21 01:19:53;;;;;;;18.25;7.25;;;20.60;91.70;;;;;;4996870;28;20221;-93
2021/06/21 01:22:54;;;;;;;19.23;7.05;;;20.50;92.00;;;;;;5007519;28;20626;-93
2021/06/21 01:31:12;;;;;;;19.73;6.75;;;20.70;90.80;;;;;;5006257;28;20234;-93
2021/06/21 01:36:26;;;;;;;15.52;7.03;;;20.60;91.00;;;;;;5009551;28;20213;-93
2021/06/21 01:38:58;;;;;;;22.23;6.65;;;20.50;90.80;;;;;;5011636;28;20223;-94
2021/06/21 01:41:29;;;;;;;18.63;6.20;;;20.50;90.80;;;;;;5013096;28;20716;-93
2021/06/21 01:43:57;;;;;;;23.48;6.85;;;20.60;90.80;;;;;;5007519;28;20782;-93
2021/06/21 01:46:35;;;;;;;16.50;7.10;;;20.50;90.70;;;;;;5002198;28;20200;-93
2021/06/21 01:49:07;;;;;;;18.38;6.40;;;20.50;90.80;;;;;;5007908;28;20923;-93
2021/06/21 01:51:57;;;;;;;19.63;6.53;;;20.50;91.00;;;;;;5006806;28;20282;-93
2021/06/21 01:54:27;;;;;;;14.65;6.45;;;20.40;91.50;;;;;;5007401;28;20703;-93
2021/06/21 01:56:54;;;;;;;17.98;6.88;;;20.30;91.60;;;;;;5007378;28;20204;-93
2021/06/21 01:59:24;;;;;;;23.23;6.82;;;20.30;91.90;;;;;;5006652;28;20258;-93
2021/06/21 02:01:53;;;;;;;18.10;7.18;;;20.40;91.70;;;;;;5006954;28;20212;-93
2021/06/21 02:07:03;;;;;;;19.20;7.20;;;20.40;91.60;;;;;;5008531;28;20211;-93
2021/06/21 02:09:31;;;;;;;16.95;7.25;;;20.50;91.50;;;;;;5009106;28;20199;-93
2021/06/21 02:11:59;;;;;;;18.27;6.88;;;20.50;91.40;;;;;;5011321;28;20208;-93
2021/06/21 02:14:29;;;;;;;19.25;7.55;;;20.60;91.40;;;;;;5011329;28;20219;-94
2021/06/21 02:16:59;;;;;;;22.13;7.53;;;20.50;91.60;;;;;;5006182;28;20205;-93
2021/06/21 02:19:30;;;;;;;18.98;6.75;;;20.50;91.70;;;;;;5011278;28;20261;-94
2021/06/21 02:21:58;;;;;;;22.38;7.40;;;20.50;91.80;;;;;;5009100;28;20203;-93
2021/06/21 02:24:26;;;;;;;22.17;7.50;;;20.40;91.90;;;;;;4980875;28;20601;-93
2021/06/21 02:26:54;;;;;;;16.92;6.85;;;20.30;92.20;;;;;;5012033;28;20226;-94
2021/06/21 02:29:23;;;;;;;24.17;7.20;;;20.30;92.70;;;;;;5012623;28;20210;-93
2021/06/21 02:31:51;;;;;;;22.17;7.10;;;20.30;92.70;;;;;;5007421;28;20203;-94
2021/06/21 02:34:18;;;;;;;15.50;6.53;;;20.30;92.70;;;;;;5007885;28;20305;-93
2021/06/21 02:39:53;;;;;;;18.85;6.75;;;20.40;92.70;;;;;;5000981;28;20222;-93
2021/06/21 02:42:20;;;;;;;23.85;7.32;;;20.30;92.60;;;;;;5014045;28;20211;-93
2021/06/21 02:44:47;;;;;;;20.00;6.63;;;20.40;92.20;;;;;;5007605;28;20715;-93
2021/06/21 02:49:55;;;;;;;21.27;6.60;;;20.40;91.50;;;;;;5001222;28;20242;-92
2021/06/21 02:55:14;;;;;;;14.38;5.72;;;20.40;91.40;;;;;;5006926;28;20203;-92
2021/06/21 03:00:40;;;;;;;12.32;5.90;;;20.30;90.80;;;;;;5000988;28;20208;-93
2021/06/21 03:03:09;;;;;;;11.68;5.43;;;20.50;90.50;;;;;;5010721;28;20788;-93
2021/06/21 03:05:38;;;;;;;14.68;5.55;;;20.50;90.00;;;;;;5008424;28;20290;-93
2021/06/21 03:10:51;;;;;;;18.52;5.80;;;20.40;90.10;;;;;;5010224;28;20218;-93
2021/06/21 03:16:02;;;;;;;15.13;5.43;;;20.50;90.20;;;;;;5011886;28;20230;-93
2021/06/21 03:18:30;;;;;;;14.68;5.30;;;20.50;89.80;;;;;;5008699;28;20230;-93
2021/06/21 03:26:25;;;;;;;16.20;5.50;;;20.50;90.00;;;;;;5005001;28;20199;-94
2021/06/21 03:28:52;;;;;;;14.68;5.50;;;20.40;90.00;;;;;;5010509;28;20222;-93
2021/06/21 03:31:21;;;;;;;19.08;6.00;;;20.50;90.00;;;;;;4997185;28;20218;-93
2021/06/21 03:33:49;;;;;;;15.45;4.88;;;20.50;89.30;;;;;;5003658;28;20223;-93
2021/06/21 03:36:16;;;;;;;19.85;5.25;;;20.40;89.00;;;;;;5012728;28;20203;-93
2021/06/21 03:41:25;;;;;;;12.27;5.10;;;20.40;88.90;;;;;;5001670;28;20302;-93
2021/06/21 03:43:52;;;;;;;18.80;5.18;;;20.50;88.70;;;;;;5007246;28;20227;-93
2021/06/21 03:46:19;;;;;;;16.10;5.20;;;20.50;88.90;;;;;;5007093;28;20206;-93
2021/06/21 03:48:46;;;;;;;15.35;5.03;;;20.50;88.20;;;;;;5004538;28;20264;-93
2021/06/21 03:51:12;;;;;;;13.57;5.00;;;20.50;87.90;;;;;;5013128;28;20200;-93
2021/06/21 03:53:39;;;;;;;15.27;5.07;;;20.60;87.20;;;;;;5017886;28;20298;-93
2021/06/21 03:56:08;;;;;;;11.75;4.57;;;20.60;86.60;;;;;;5014223;28;20203;-93
2021/06/21 03:58:34;;;;;;;15.68;4.68;;;20.60;86.50;;;;;;5009613;28;20227;-94
2021/06/21 04:01:01;;;;;;;14.15;4.85;;;20.70;86.40;;;;;;5019540;28;20203;-94
2021/06/21 04:03:28;;;;;;;17.30;4.93;;;20.60;85.60;;;;;;5024049;28;20694;-92
2021/06/21 04:05:55;;;;;;;10.85;4.05;;;20.70;85.50;;;;;;5024879;28;20627;-92
2021/06/21 04:08:22;;;;;;;12.57;4.30;;;20.70;84.50;;;;;;5021293;28;20219;-92
2021/06/21 04:10:49;;;;;;;16.30;4.90;;;20.80;83.10;;;;;;5023509;28;20271;-91
2021/06/21 04:16:02;;;;;;;14.10;4.22;;;21.10;81.60;;;;;;5005655;28;20542;-92
2021/06/21 04:18:29;;;;;;;14.90;4.47;;;21.20;81.30;;;;;;5027410;28;20238;-91
2021/06/21 04:44:41;;;;;;;15.55;3.80;;;21.80;75.10;;;;;;5021974;28;20245;-91
2021/06/21 04:55:45;;;;;;;13.43;4.13;;;21.70;75.00;;;;;;5063151;28;20261;-93
2021/06/21 05:03:37;;;;;;;11.25;3.92;;;21.80;73.40;;;;;;5051726;28;20214;-90
2021/06/21 05:06:04;;;;;;;13.48;4.15;;;22.00;71.20;;;;;;5056530;28;20263;-91
2021/06/21 05:08:33;;;;;;;9.07;3.58;;;22.20;73.20;;;;;;5041637;28;20249;-91
2021/06/21 05:11:00;;;;;;;13.88;4.22;;;22.30;69.80;;;;;;5053764;28;20202;-91
2021/06/21 05:13:27;;;;;;;11.98;4.10;;;22.30;65.90;;;;;;5048019;28;20265;-91
2021/06/21 05:15:54;;;;;;;11.07;4.18;;;22.40;66.60;;;;;;5047769;28;20252;-92
2021/06/21 05:18:41;;;;;;;14.68;4.18;;;22.50;66.00;;;;;;5048411;28;20496;-91
2021/06/21 05:21:10;;;;;;;12.70;4.03;;;22.50;64.10;;;;;;5046666;28;20205;-91
2021/06/21 05:23:39;;;;;;;12.93;4.00;;;22.50;64.80;;;;;;5050734;28;20253;-92
2021/06/21 05:26:06;;;;;;;15.88;4.22;;;22.50;64.90;;;;;;5054157;28;20198;-92
2021/06/21 05:28:34;;;;;;;14.63;4.47;;;22.40;65.60;;;;;;5055465;28;20218;-91
2021/06/21 05:31:00;;;;;;;11.73;3.95;;;22.40;66.10;;;;;;5056226;28;20205;-90
2021/06/21 05:33:27;;;;;;;14.38;4.25;;;22.20;67.60;;;;;;5049219;28;20233;-90
2021/06/21 05:35:54;;;;;;;12.07;3.72;;;22.20;68.40;;;;;;5049851;28;20303;-89
2021/06/21 05:38:24;;;;;;;13.65;4.18;;;22.10;67.90;;;;;;5054545;28;20225;-89
2021/06/21 05:40:52;;;;;;;10.90;4.05;;;22.00;67.70;;;;;;5052814;28;20285;-89
2021/06/21 05:43:19;;;;;;;11.43;3.83;;;21.90;70.60;;;;;;5053989;28;20225;-88
2021/06/21 05:45:46;;;;;;;14.15;4.38;;;21.90;68.20;;;;;;5055943;28;20734;-89
2021/06/21 05:48:14;;;;;;;14.13;4.05;;;21.80;70.70;;;;;;5056644;28;20232;-89
2021/06/21 05:50:42;;;;;;;12.60;3.70;;;22.00;66.90;;;;;;5053427;28;20216;-88
2021/06/21 05:53:09;;;;;;;13.32;3.65;;;22.10;66.80;;;;;;5054157;28;20240;-88
2021/06/21 05:55:36;;;;;;;9.48;3.58;;;22.10;63.30;;;;;;5058367;28;20210;-88
2021/06/21 05:58:04;;;;;;;10.45;3.75;;;22.00;65.70;;;;;;5059209;28;20225;-88
2021/06/21 06:00:31;;;;;;;13.95;3.65;;;22.20;63.20;;;;;;5059167;28;20206;-89
2021/06/21 06:02:58;;;;;;;10.13;3.63;;;22.20;62.60;;;;;;5058280;28;20260;-90
2021/06/21 06:05:25;;;;;;;10.57;3.40;;;22.10;61.30;;;;;;5044130;28;20696;-90
2021/06/21 06:07:52;;;;;;;10.85;3.58;;;22.30;59.50;;;;;;5042553;28;20756;-89
2021/06/21 06:10:20;;;;;;;10.60;3.30;;;22.40;58.10;;;;;;5047604;28;20204;-89
2021/06/21 06:12:47;;;;;;;8.98;3.60;;;22.50;58.20;;;;;;5042226;28;20225;-89
2021/06/21 06:15:17;;;;;;;9.57;3.47;;;22.60;58.30;;;;;;5047580;28;20217;-89
2021/06/21 06:17:44;;;;;;;11.18;3.60;;;22.60;58.30;;;;;;5036218;28;20230;-90
2021/06/21 06:20:12;;;;;;;12.98;4.03;;;22.60;58.30;;;;;;5042181;28;20202;-90
2021/06/21 06:22:40;;;;;;;8.98;2.83;;;22.60;55.30;;;;;;5048502;28;20229;-90
2021/06/21 06:25:08;;;;;;;13.77;3.38;;;22.70;53.30;;;;;;5049297;28;20309;-90
2021/06/21 06:27:35;;;;;;;9.35;4.10;;;22.70;54.10;;;;;;5044560;28;20225;-90
2021/06/21 06:30:03;;;;;;;11.40;3.00;;;22.80;52.90;;;;;;5043950;28;20214;-90
2021/06/21 06:32:34;;;;;;;10.30;2.70;;;22.80;52.60;;;;;;5053362;28;20232;-89
2021/06/21 06:35:00;;;;;;;9.82;3.22;;;22.70;53.30;;;;;;5046117;28;20212;-89
2021/06/21 06:37:27;;;;;;;10.93;3.15;;;22.80;52.70;;;;;;5040389;28;20268;-89
2021/06/21 06:39:54;;;;;;;8.07;3.17;;;22.90;51.40;;;;;;5046222;28;20617;-89
2021/06/21 06:42:21;;;;;;;8.80;3.40;;;22.90;52.60;;;;;;5042646;28;20259;-89
2021/06/21 06:44:48;;;;;;;15.70;3.28;;;22.90;51.40;;;;;;5048848;28;20225;-89
2021/06/21 06:47:15;;;;;;;11.20;3.35;;;22.90;51.20;;;;;;5040510;28;20568;-90
2021/06/21 06:49:44;;;;;;;10.48;3.17;;;22.90;50.50;;;;;;5045961;28;20536;-90
2021/06/21 06:52:12;;;;;;;10.70;3.05;;;22.90;52.80;;;;;;5048933;28;20597;-89
2021/06/21 06:54:48;;;;;;;9.77;3.10;;;23.00;52.60;;;;;;5045851;28;20360;-89
2021/06/21 06:57:14;;;;;;;10.55;3.00;;;23.00;51.50;;;;;;5046613;28;20240;-88
2021/06/21 06:59:42;;;;;;;9.43;3.22;;;23.20;50.50;;;;;;5049257;28;20635;-89
2021/06/21 07:02:10;;;;;;;13.40;3.15;;;23.20;49.20;;;;;;5040892;28;20563;-90
2021/06/21 07:04:38;;;;;;;13.52;3.22;;;23.40;49.90;;;;;;5039822;28;20225;-90
2021/06/21 07:07:07;;;;;;;11.93;3.38;;;23.20;47.60;;;;;;5049134;28;20225;-89
2021/06/21 07:09:35;;;;;;;10.48;2.80;;;23.10;46.70;;;;;;5051201;28;20204;-89
2021/06/21 07:12:02;;;;;;;11.38;3.22;;;23.30;46.80;;;;;;5043947;28;20208;-89
2021/06/21 07:14:29;;;;;;;12.80;3.42;;;23.90;46.20;;;;;;5045238;28;20213;-87
2021/06/21 07:16:56;;;;;;;9.02;3.03;;;24.90;43.20;;;;;;5043812;28;20676;-88
2021/06/21 07:19:23;;;;;;;10.43;3.35;;;27.20;37.60;;;;;;5048474;28;20240;-89
2021/06/21 07:21:51;;;;;;;9.15;3.20;;;29.90;29.30;;;;;;5045637;28;20209;-89
2021/06/21 07:24:20;;;;;;;10.25;3.00;;;31.10;23.50;;;;;;5050512;28;20535;-89
2021/06/21 07:26:48;;;;;;;12.40;3.20;;;31.20;23.50;;;;;;5050131;28;20300;-89
2021/06/21 07:29:15;;;;;;;12.30;3.20;;;30.30;25.00;;;;;;5048226;28;20220;-89
2021/06/21 07:31:42;;;;;;;9.75;3.10;;;29.10;27.00;;;;;;5046237;28;20584;-89
2021/06/21 07:34:09;;;;;;;10.70;3.15;;;28.30;28.20;;;;;;5051049;28;20235;-88
2021/06/21 07:36:36;;;;;;;10.30;3.47;;;27.40;30.70;;;;;;5043409;28;20206;-89
2021/06/21 07:39:04;;;;;;;11.52;3.08;;;26.90;31.80;;;;;;5047594;28;20232;-87
2021/06/21 07:41:33;;;;;;;7.95;2.97;;;26.50;33.40;;;;;;5045980;28;20206;-87
2021/06/21 07:44:00;;;;;;;13.40;3.08;;;26.00;35.30;;;;;;5039779;28;20222;-87
2021/06/21 07:46:27;;;;;;;10.88;3.25;;;25.70;36.70;;;;;;5042556;28;20228;-87
2021/06/21 07:48:54;;;;;;;12.05;3.15;;;25.50;36.50;;;;;;5043372;28;20229;-86
2021/06/21 07:51:23;;;;;;;12.02;2.67;;;25.50;36.50;;;;;;5042995;28;20213;-88
2021/06/21 07:53:52;;;;;;;11.43;3.25;;;25.50;36.50;;;;;;5052701;28;20232;-87
2021/06/21 07:56:20;;;;;;;11.07;3.03;;;25.50;36.50;;;;;;5042228;28;20665;-87
2021/06/21 07:58:49;;;;;;;10.52;2.90;;;25.50;36.50;;;;;;5052332;28;20583;-91
2021/06/21 08:01:16;;;;;;;14.23;3.22;;;25.50;37.70;;;;;;5049982;28;20198;-90
2021/06/21 08:03:45;;;;;;;7.43;2.50;;;25.70;36.70;;;;;;5047574;28;20238;-90
2021/06/21 08:06:12;;;;;;;17.05;3.15;;;26.00;34.80;;;;;;5045558;28;20253;-91
2021/06/21 08:08:40;;;;;;;8.48;3.08;;;26.10;34.10;;;;;;5055262;28;20694;-89
2021/06/21 08:11:07;;;;;;;8.15;3.10;;;26.10;34.10;;;;;;5049134;28;20680;-88
2021/06/21 08:13:34;;;;;;;8.88;3.15;;;26.70;31.90;;;;;;5046564;28;20214;-88
2021/06/21 08:16:03;;;;;;;10.18;3.92;;;27.40;30.10;;;;;;5040627;28;20209;-91
2021/06/21 08:18:29;;;;;;;12.98;3.10;;;28.70;26.80;;;;;;5043800;28;20503;-90
2021/06/21 08:20:57;;;;;;;7.25;2.60;;;30.10;23.70;;;;;;5052294;28;20202;-89
2021/06/21 08:23:25;;;;;;;6.53;2.88;;;31.90;20.00;;;;;;5054624;28;20233;-90
2021/06/21 08:25:52;;;;;;;11.15;3.30;;;34.00;18.60;;;;;;5051447;28;20224;-92
2021/06/21 08:43:58;;;;;;;11.95;4.30;;;39.50;9.70;;;;;;5040326;28;20233;-92
2021/06/21 08:46:25;;;;;;;7.93;3.80;;;39.20;9.50;;;;;;5059018;28;20232;-92
2021/06/21 08:56:58;;;;;;;6.30;4.10;;;40.50;7.40;;;;;;5053879;28;20210;-92
2021/06/21 09:02:28;;;;;;;8.27;4.63;;;40.40;7.80;;;;;;5033248;28;20582;-92
2021/06/21 09:04:55;;;;;;;11.93;4.93;;;40.70;9.00;;;;;;5045656;28;20573;-93
2021/06/21 09:07:24;;;;;;;8.45;4.70;;;40.10;7.10;;;;;;5052626;28;20373;-91
2021/06/21 09:13:06;;;;;;;11.35;4.40;;;41.00;6.70;;;;;;5044640;28;20230;-91
2021/06/21 09:15:35;;;;;;;8.98;5.40;;;41.10;6.50;;;;;;5043135;28;20209;-91
2021/06/21 09:18:26;;;;;;;10.88;4.95;;;41.30;6.80;;;;;;5050851;28;20217;-89
2021/06/21 09:21:22;;;;;;;9.10;4.45;;;41.20;6.50;;;;;;5040173;28;20205;-90
2021/06/21 09:23:50;;;;;;;9.00;4.85;;;40.30;7.10;;;;;;5046742;28;20225;-90
2021/06/21 09:40:34;;;;;;;9.98;4.60;;;39.30;7.90;;;;;;5026698;28;20240;-93
2021/06/21 09:46:24;;;;;;;11.27;4.90;;;37.80;8.70;;;;;;5035052;28;20226;-92
2021/06/21 09:48:55;;;;;;;7.68;4.90;;;37.90;10.90;;;;;;5036662;28;20252;-93
2021/06/21 10:09:55;;;;;;;14.60;5.63;;;39.30;8.20;;;;;;4967003;28;20696;-93
2021/06/21 10:15:07;;;;;;;10.82;5.60;;;38.10;10.60;;;;;;5018304;28;20202;-93
2021/06/21 10:17:34;;;;;;;10.90;5.40;;;39.20;10.20;;;;;;5021879;28;20254;-90
2021/06/21 10:20:03;;;;;;;11.98;6.20;;;40.40;9.10;;;;;;5026154;28;20199;-92
2021/06/21 10:22:30;;;;;;;10.63;5.82;;;40.80;6.20;;;;;;5012361;28;20233;-91
2021/06/21 10:24:58;;;;;;;10.90;5.70;;;40.70;7.40;;;;;;5010324;28;20208;-91
2021/06/21 10:33:25;;;;;;;13.02;4.90;;;38.50;10.40;;;;;;5004168;28;20601;-93
2021/06/21 10:36:12;;;;;;;13.43;4.80;;;38.30;8.90;;;;;;5027998;28;20229;-92
2021/06/21 10:38:39;;;;;;;13.05;4.53;;;38.30;9.40;;;;;;5016147;28;20282;-93
2021/06/21 10:55:41;;;;;;;10.68;4.22;;;37.10;12.60;;;;;;5004206;28;20198;-92
2021/06/21 10:58:34;;;;;;;11.40;4.10;;;37.60;11.90;;;;;;5018268;28;20232;-92
2021/06/21 11:06:45;;;;;;;14.48;3.80;;;33.60;17.10;;;;;;5005306;28;20223;-91
2021/06/21 11:09:12;;;;;;;10.77;3.30;;;32.20;17.70;;;;;;5012994;28;20222;-91
2021/06/21 11:11:46;;;;;;;10.63;3.45;;;31.60;18.70;;;;;;5007218;28;20233;-92
2021/06/21 11:14:15;;;;;;;8.60;2.80;;;31.20;21.30;;;;;;5011288;28;20224;-92
2021/06/21 11:16:45;;;;;;;10.23;3.00;;;30.60;19.70;;;;;;5012578;28;20619;-92
2021/06/21 11:19:35;;;;;;;10.73;2.92;;;30.20;21.80;;;;;;5017556;28;20203;-91
2021/06/21 11:22:06;;;;;;;9.23;2.78;;;29.90;22.20;;;;;;5013035;28;20233;-89
2021/06/21 11:24:49;;;;;;;6.15;2.72;;;29.60;22.40;;;;;;5007468;28;20214;-89
2021/06/21 11:27:17;;;;;;;9.20;3.00;;;29.50;24.20;;;;;;5006695;28;20226;-89
2021/06/21 11:29:45;;;;;;;10.57;2.90;;;29.80;25.50;;;;;;5017436;28;20190;-89
2021/06/21 11:32:14;;;;;;;6.75;2.65;;;30.00;24.30;;;;;;5015671;28;20535;-89
2021/06/21 11:34:46;;;;;;;9.20;3.10;;;30.50;24.90;;;;;;5014628;28;20210;-90
2021/06/21 11:37:35;;;;;;;9.52;3.20;;;30.90;24.80;;;;;;5011525;28;20195;-89
2021/06/21 11:40:29;;;;;;;10.90;2.47;;;31.00;21.10;;;;;;5007230;28;20206;-89
2021/06/21 11:43:16;;;;;;;9.15;3.03;;;31.00;24.70;;;;;;5012611;28;20226;-91
2021/06/21 11:51:19;;;;;;;7.20;3.15;;;30.80;20.90;;;;;;4990845;28;20213;-92
2021/06/21 11:59:49;;;;;;;13.13;3.30;;;30.80;22.40;;;;;;4993086;28;20214;-92
2021/06/21 12:02:18;;;;;;;11.02;3.13;;;30.80;22.10;;;;;;5006987;28;20575;-91
2021/06/21 12:04:54;;;;;;;13.13;3.28;;;30.50;21.70;;;;;;5011703;28;20226;-89
2021/06/21 12:07:32;;;;;;;14.30;3.10;;;30.30;21.80;;;;;;4998694;28;20297;-91
2021/06/21 12:10:04;;;;;;;10.63;3.08;;;30.30;23.10;;;;;;5009698;28;20252;-90
2021/06/21 12:12:32;;;;;;;10.40;3.08;;;30.30;21.10;;;;;;5020214;28;20252;-91
2021/06/21 12:14:59;;;;;;;10.50;3.08;;;30.50;21.60;;;;;;5011661;28;20249;-90
2021/06/21 12:17:28;;;;;;;10.45;3.00;;;30.60;22.10;;;;;;5008876;28;20245;-90
2021/06/21 12:20:18;;;;;;;6.70;2.55;;;30.40;22.80;;;;;;5006219;28;20213;-90
2021/06/21 12:25:41;;;;;;;9.85;3.38;;;30.20;23.90;;;;;;5011361;28;20206;-91
2021/06/21 12:28:33;;;;;;;9.98;3.28;;;30.30;22.40;;;;;;5020004;28;20654;-91
2021/06/21 12:39:23;;;;;;;8.20;2.65;;;30.30;21.40;;;;;;4971943;28;20203;-91
2021/06/21 12:47:32;;;;;;;15.32;3.17;;;29.90;23.80;;;;;;5014417;28;20230;-91
2021/06/21 12:50:06;;;;;;;13.25;3.38;;;29.90;22.90;;;;;;5019218;28;20199;-90
2021/06/21 12:52:34;;;;;;;10.40;3.20;;;29.70;24.30;;;;;;5012898;28;20245;-90
2021/06/21 13:03:46;;;;;;;9.13;3.28;;;29.50;22.90;;;;;;5008032;28;20275;-92
2021/06/21 13:09:20;;;;;;;13.13;3.40;;;29.90;22.80;;;;;;5007921;28;20751;-89
2021/06/21 13:11:55;;;;;;;11.88;3.10;;;30.00;24.80;;;;;;5015326;28;20213;-89
2021/06/21 13:14:30;;;;;;;7.95;3.30;;;30.00;23.30;;;;;;5018160;28;20671;-89
2021/06/21 13:17:13;;;;;;;9.68;3.20;;;30.10;21.60;;;;;;5020919;28;20205;-89
2021/06/21 13:19:45;;;;;;;12.35;3.38;;;30.00;23.00;;;;;;5016012;28;20215;-90
2021/06/21 13:22:15;;;;;;;13.70;3.22;;;30.10;23.00;;;;;;5014242;28;20206;-92
2021/06/21 13:25:15;;;;;;;9.70;3.22;;;29.80;22.30;;;;;;5008893;28;20207;-91
2021/06/21 13:27:55;;;;;;;8.93;3.30;;;29.50;24.10;;;;;;5005513;28;20241;-91
2021/06/21 13:30:26;;;;;;;10.48;3.05;;;29.50;24.00;;;;;;5008288;28;20206;-91
2021/06/21 13:32:54;;;;;;;8.77;3.10;;;29.40;25.00;;;;;;5009208;28;20237;-91
2021/06/21 13:35:22;;;;;;;13.23;3.10;;;29.70;24.60;;;;;;5014532;28;20724;-91
2021/06/21 13:37:50;;;;;;;12.88;3.05;;;30.30;23.50;;;;;;5014975;28;20237;-91
2021/06/21 13:40:20;;;;;;;11.18;3.50;;;30.60;23.20;;;;;;5009197;28;20195;-90
2021/06/21 13:42:50;;;;;;;8.80;2.67;;;30.40;22.20;;;;;;5016516;28;20243;-90
2021/06/21 13:45:22;;;;;;;11.15;3.40;;;30.40;22.20;;;;;;5019941;28;20199;-91
2021/06/21 13:47:56;;;;;;;11.50;3.13;;;30.40;20.70;;;;;;5014511;28;20219;-92
2021/06/21 13:50:36;;;;;;;13.13;2.90;;;30.10;21.20;;;;;;5020632;28;20212;-91
2021/06/21 13:53:24;;;;;;;8.48;2.78;;;30.10;21.90;;;;;;5016663;28;20284;-93
2021/06/21 13:58:45;;;;;;;8.52;2.90;;;30.50;22.00;;;;;;5026905;28;20566;-90
2021/06/21 14:04:38;;;;;;;;;;;;;;;;;;;;;
2021/06/21 14:14:10;;;;;;;10.90;3.15;;;29.20;24.40;;;;;;5025781;28;20187;-92
2021/06/21 14:16:38;;;;;;;10.95;2.90;;;29.30;25.80;;;;;;5005136;28;20194;-92
2021/06/21 14:19:05;;;;;;;9.82;3.28;;;29.30;23.50;;;;;;5011111;28;20278;-91
2021/06/21 14:21:34;;;;;;;15.13;3.13;;;29.40;24.90;;;;;;5001150;28;20207;-86
2021/06/21 14:24:02;;;;;;;10.23;2.83;;;29.40;24.70;;;;;;5003292;28;20365;-90
2021/06/21 14:26:29;;;;;;;8.65;2.92;;;29.10;24.60;;;;;;5011291;28;20230;-90
2021/06/21 14:28:56;;;;;;;9.63;2.92;;;28.80;25.80;;;;;;5004326;28;20248;-90
2021/06/21 14:31:24;;;;;;;15.73;3.22;;;28.70;26.20;;;;;;5007808;28;20205;-88
2021/06/21 14:33:51;;;;;;;13.70;3.28;;;28.60;26.10;;;;;;4996682;28;20301;-90
2021/06/21 14:36:18;;;;;;;9.13;3.10;;;28.60;25.70;;;;;;5001245;28;20749;-89
2021/06/21 14:41:28;;;;;;;13.65;3.13;;;28.50;26.70;;;;;;5007566;28;20212;-90
2021/06/21 14:43:57;;;;;;;11.93;3.28;;;28.60;26.80;;;;;;5006127;28;20319;-90
2021/06/21 14:46:24;;;;;;;11.30;3.10;;;28.80;26.80;;;;;;4999083;28;20226;-89
2021/06/21 14:48:55;;;;;;;16.73;3.70;;;28.80;25.70;;;;;;4998018;28;20313;-89
2021/06/21 14:51:30;;;;;;;13.88;3.45;;;28.50;26.30;;;;;;5005251;28;20199;-88
2021/06/21 14:53:58;;;;;;;11.93;3.00;;;28.50;26.70;;;;;;5008610;28;20308;-89
2021/06/21 14:56:25;;;;;;;11.10;3.13;;;28.60;26.70;;;;;;5016729;28;20226;-88
2021/06/21 14:58:52;;;;;;;13.00;3.20;;;28.70;26.80;;;;;;5005192;28;20223;-85
2021/06/21 15:01:23;;;;;;;12.10;3.20;;;28.70;26.70;;;;;;5022191;28;20191;-88
2021/06/21 15:03:50;;;;;;;10.73;3.10;;;28.70;26.80;;;;;;5010072;28;20231;-88
2021/06/21 15:06:19;;;;;;;12.30;3.13;;;28.80;24.90;;;;;;5013973;28;20557;-88
2021/06/21 15:08:47;;;;;;;13.18;3.55;;;28.80;26.40;;;;;;5019123;28;20234;-88
2021/06/21 15:11:16;;;;;;;8.65;3.53;;;28.80;26.40;;;;;;5019403;28;20684;-89
2021/06/21 15:13:43;;;;;;;17.35;3.63;;;29.00;26.20;;;;;;5016108;28;20585;-88
2021/06/21 15:16:11;;;;;;;9.88;2.80;;;29.30;26.00;;;;;;5008627;28;20198;-89
2021/06/21 15:18:38;;;;;;;13.80;3.30;;;29.30;25.50;;;;;;5006187;28;20242;-89
2021/06/21 15:21:06;;;;;;;12.07;3.38;;;29.30;25.20;;;;;;5016813;28;20190;-89
2021/06/21 15:23:56;;;;;;;9.57;2.92;;;28.90;26.00;;;;;;5011461;28;20250;-89
2021/06/21 15:26:31;;;;;;;16.15;3.20;;;28.50;26.70;;;;;;5002143;28;20265;-89
2021/06/21 15:29:45;;;;;;;14.60;3.25;;;28.50;26.70;;;;;;5007617;28;20716;-89
2021/06/21 15:32:12;;;;;;;9.85;3.78;;;28.50;26.70;;;;;;5009552;28;20205;-89
2021/06/21 15:35:39;;;;;;;13.55;2.80;;;28.40;26.60;;;;;;5008939;28;20650;-90
2021/06/21 15:38:09;;;;;;;9.57;3.30;;;28.50;26.60;;;;;;4973211;28;20228;-89
2021/06/21 15:40:39;;;;;;;11.50;3.58;;;28.50;26.70;;;;;;5008957;28;20213;-88
2021/06/21 15:43:10;;;;;;;11.60;3.50;;;28.50;27.10;;;;;;5008339;28;20256;-88
2021/06/21 15:45:40;;;;;;;9.93;2.90;;;28.50;26.70;;;;;;5018914;28;20206;-89
2021/06/21 15:48:10;;;;;;;15.25;2.90;;;28.60;27.10;;;;;;5009094;28;20334;-88
2021/06/21 15:50:37;;;;;;;12.10;3.55;;;28.60;26.70;;;;;;5012729;28;20618;-88
2021/06/21 15:53:08;;;;;;;7.78;3.13;;;28.50;26.70;;;;;;5012806;28;20222;-88
2021/06/21 15:55:36;;;;;;;10.07;3.28;;;28.50;25.90;;;;;;5018755;28;20203;-88
2021/06/21 15:58:06;;;;;;;14.25;3.60;;;28.40;26.60;;;;;;5020833;28;20682;-88
2021/06/21 16:00:36;;;;;;;12.70;3.40;;;28.30;26.50;;;;;;5012656;28;20254;-88
2021/06/21 16:03:05;;;;;;;11.35;3.30;;;28.30;26.60;;;;;;5010529;28;20851;-89
2021/06/21 16:05:32;;;;;;;12.88;3.40;;;28.20;27.40;;;;;;5009111;28;20223;-86
2021/06/21 16:07:59;;;;;;;14.82;3.80;;;28.10;27.50;;;;;;5021110;28;20265;-87
2021/06/21 16:10:27;;;;;;;14.82;3.42;;;28.10;28.40;;;;;;5008018;28;20214;-89
2021/06/21 16:12:54;;;;;;;10.52;3.10;;;28.20;27.50;;;;;;5001435;28;20226;-88
2021/06/21 16:15:24;;;;;;;14.75;3.55;;;28.10;27.00;;;;;;5007682;28;20560;-89
2021/06/21 16:17:54;;;;;;;13.57;3.17;;;28.10;26.40;;;;;;4992980;28;20222;-89
2021/06/21 16:20:21;;;;;;;12.02;3.47;;;28.00;27.80;;;;;;5012246;28;20650;-90
2021/06/21 16:22:48;;;;;;;10.90;2.72;;;28.00;28.00;;;;;;5012313;28;20227;-89
2021/06/21 16:25:16;;;;;;;10.95;3.00;;;28.00;28.30;;;;;;5011634;28;20709;-89
2021/06/21 16:27:45;;;;;;;14.00;3.60;;;27.90;27.90;;;;;;5022568;28;20230;-86
2021/06/21 16:30:36;;;;;;;11.60;3.10;;;27.90;27.70;;;;;;5026456;28;20203;-88
2021/06/21 16:35:52;;;;;;;9.60;3.22;;;27.80;28.40;;;;;;5003508;28;20212;-91
2021/06/21 16:41:00;;;;;;;10.43;4.25;;;27.70;29.00;;;;;;5014064;28;20214;-91
2021/06/21 16:43:49;;;;;;;13.18;4.30;;;27.60;29.20;;;;;;5018320;28;20254;-90
2021/06/21 16:46:16;;;;;;;10.50;3.10;;;27.60;29.60;;;;;;5005208;28;20268;-90
2021/06/21 16:48:47;;;;;;;10.63;3.25;;;27.60;29.60;;;;;;5008827;28;20234;-88
2021/06/21 16:51:14;;;;;;;14.32;3.22;;;27.60;29.50;;;;;;5005190;28;20195;-88
2021/06/21 16:53:43;;;;;;;13.50;3.42;;;27.60;28.60;;;;;;5004164;28;20232;-88
2021/06/21 16:56:17;;;;;;;14.80;3.90;;;27.60;28.90;;;;;;5009530;28;20654;-88
2021/06/21 16:58:45;;;;;;;12.38;3.20;;;27.50;29.50;;;;;;5006600;28;20241;-89
2021/06/21 17:01:16;;;;;;;13.38;3.15;;;27.40;29.40;;;;;;5014478;28;20213;-89
2021/06/21 17:03:43;;;;;;;11.73;3.40;;;27.40;29.40;;;;;;5007283;28;20751;-89
2021/06/21 17:06:12;;;;;;;10.80;3.08;;;27.30;29.20;;;;;;5006728;28;20274;-88
2021/06/21 17:08:39;;;;;;;11.90;3.42;;;27.30;29.30;;;;;;5005553;28;20219;-90